Time;durP1;ratioP1;P1;durP2;ratioP2;P2;SDS_P1;SDS_P2;PMS_P1;PMS_P2;Temp;Humidity;BMP_temperature;BMP_pressure;BME280_temperature;BME280_humidity;BME280_pressure;Samples;Min_cycle;Max_cycle;Signal;HPM_P1;HPM_P2
2022/04/13 00:02:26;;;;;;;2.80;1.95;;;;;;;16.38;50.71;99881.69;5061449;28;20053;-83
2022/04/13 00:04:54;;;;;;;3.92;1.73;;;;;;;16.34;50.48;99891.25;5069400;28;20048;-83
2022/04/13 00:07:23;;;;;;;4.30;2.00;;;;;;;16.29;50.52;99895.13;5067449;28;20049;-83
2022/04/13 00:09:51;;;;;;;3.03;1.90;;;;;;;16.24;50.54;99890.63;5055034;28;20049;-83
2022/04/13 00:12:18;;;;;;;4.32;1.85;;;;;;;16.19;50.83;99893.72;5073701;28;20052;-82
2022/04/13 00:14:49;;;;;;;4.18;2.05;;;;;;;16.16;49.99;99879.59;5068749;28;20045;-83
2022/04/13 00:17:16;;;;;;;4.47;2.20;;;;;;;16.10;51.00;99893.09;5055421;28;20049;-82
2022/04/13 00:19:44;;;;;;;2.58;2.08;;;;;;;16.02;50.79;99894.09;5069922;28;20053;-83
2022/04/13 00:22:11;;;;;;;2.60;1.80;;;;;;;15.94;50.82;99895.16;5047241;28;20056;-84
2022/04/13 00:24:38;;;;;;;4.40;2.03;;;;;;;15.87;51.38;99897.78;5076603;28;20053;-83
2022/04/13 00:27:06;;;;;;;3.00;2.15;;;;;;;15.78;51.64;99900.78;5069694;28;20053;-83
2022/04/13 00:29:33;;;;;;;3.72;1.92;;;;;;;15.69;51.56;99884.09;5065292;28;20052;-83
2022/04/13 00:32:03;;;;;;;6.55;2.05;;;;;;;15.60;51.74;99898.31;5075797;28;20531;-83
2022/04/13 00:34:31;;;;;;;4.15;1.88;;;;;;;15.50;51.66;99904.47;5059943;28;20052;-83
2022/04/13 00:36:58;;;;;;;3.45;2.00;;;;;;;15.44;51.93;99900.31;5056297;28;20060;-83
2022/04/13 00:39:26;;;;;;;5.40;2.15;;;;;;;15.38;51.94;99913.78;5057544;28;20049;-83
2022/04/13 00:41:58;;;;;;;3.28;2.13;;;;;;;15.34;51.61;99906.44;5058140;28;20057;-83
2022/04/13 00:44:27;;;;;;;4.60;2.08;;;;;;;15.28;51.89;99905.88;5060099;28;20059;-82
2022/04/13 00:46:54;;;;;;;3.88;2.08;;;;;;;15.22;51.71;99910.13;5062011;28;20470;-83
2022/04/13 00:49:25;;;;;;;4.95;2.10;;;;;;;15.17;51.84;99916.00;5077714;28;20508;-82
2022/04/13 00:51:53;;;;;;;2.80;1.75;;;;;;;15.13;52.04;99918.72;5069634;28;20053;-83
2022/04/13 00:54:22;;;;;;;3.05;2.22;;;;;;;15.10;52.46;99913.84;5070480;28;20060;-83
2022/04/13 00:56:50;;;;;;;;;;;;;;;15.01;52.56;99908.41;5070433;28;20060;-82
2022/04/13 00:59:18;;;;;;;3.33;2.10;;;;;;;14.99;52.27;99921.97;5060238;28;19921;-83
2022/04/13 01:01:49;;;;;;;2.55;2.10;;;;;;;14.98;52.26;99928.72;5063368;28;20056;-83
2022/04/13 01:04:18;;;;;;;2.97;1.92;;;;;;;14.96;52.59;99919.84;5074729;28;20052;-83
2022/04/13 01:06:46;;;;;;;2.67;2.17;;;;;;;14.94;52.44;99916.59;5074832;28;20053;-83
2022/04/13 01:09:16;;;;;;;3.45;2.10;;;;;;;14.92;53.15;99913.31;5065384;28;20052;-83
2022/04/13 01:11:43;;;;;;;2.72;1.95;;;;;;;14.91;53.18;99917.31;5060946;28;20045;-83
2022/04/13 01:14:10;;;;;;;4.53;2.15;;;;;;;14.90;53.23;99928.88;5069198;28;20063;-83
2022/04/13 01:16:39;;;;;;;3.03;1.80;;;;;;;14.88;53.17;99929.22;5061682;28;20056;-83
2022/04/13 01:19:13;;;;;;;3.70;2.20;;;;;;;14.87;53.17;99922.00;5060469;28;20057;-81
2022/04/13 01:21:44;;;;;;;3.17;2.10;;;;;;;14.85;53.38;99935.56;5060226;28;20053;-83
2022/04/13 01:24:14;;;;;;;4.55;2.08;;;;;;;14.85;53.62;99941.19;5057854;28;20056;-82
2022/04/13 01:26:41;;;;;;;3.40;2.10;;;;;;;14.82;53.56;99937.09;5043807;28;20485;-83
2022/04/13 01:29:09;;;;;;;2.95;2.03;;;;;;;14.79;53.73;99939.78;5063628;28;20057;-83
2022/04/13 01:31:36;;;;;;;3.83;2.38;;;;;;;14.75;53.94;99938.88;5064914;28;20049;-83
2022/04/13 01:34:04;;;;;;;3.70;2.13;;;;;;;14.74;54.33;99937.22;5060152;28;20069;-83
2022/04/13 01:36:33;;;;;;;3.30;2.00;;;;;;;14.74;54.20;99946.47;5058881;28;20076;-82
2022/04/13 01:39:01;;;;;;;3.00;1.92;;;;;;;14.69;54.62;99943.09;5049863;28;20046;-83
2022/04/13 01:41:30;;;;;;;3.35;2.08;;;;;;;14.68;55.30;99944.25;5051134;28;20052;-82
2022/04/13 01:43:57;;;;;;;3.27;2.10;;;;;;;14.67;55.00;99940.66;5068259;28;20049;-83
2022/04/13 01:46:25;;;;;;;3.53;1.90;;;;;;;14.65;55.16;99942.97;5060294;28;20040;-83
2022/04/13 01:48:52;;;;;;;3.72;2.17;;;;;;;14.60;55.28;99946.84;5077360;28;20060;-83
2022/04/13 01:51:20;;;;;;;2.83;1.95;;;;;;;14.59;55.49;99950.00;5065995;28;20049;-85
2022/04/13 01:53:48;;;;;;;3.40;2.10;;;;;;;14.54;55.41;99962.25;5058954;28;20056;-83
2022/04/13 01:56:16;;;;;;;4.45;2.10;;;;;;;14.50;55.21;99952.91;5039804;28;20050;-82
2022/04/13 01:58:44;;;;;;;2.90;2.05;;;;;;;14.48;55.45;99955.25;5064051;28;20053;-83
2022/04/13 02:01:12;;;;;;;3.23;2.07;;;;;;;14.45;55.80;99955.97;5061841;28;20052;-82
2022/04/13 02:03:40;;;;;;;2.60;1.83;;;;;;;14.38;55.97;99958.53;5053431;28;20053;-83
2022/04/13 02:06:07;;;;;;;3.50;2.10;;;;;;;14.32;55.83;99951.53;5075296;28;20060;-83
2022/04/13 02:08:35;;;;;;;3.03;2.20;;;;;;;14.26;56.16;99955.75;5068431;28;20049;-83
2022/04/13 02:11:03;;;;;;;4.10;2.10;;;;;;;14.21;56.26;99966.06;5053564;28;20053;-83
2022/04/13 02:13:31;;;;;;;4.20;2.22;;;;;;;14.17;56.39;99962.31;5064425;28;20420;-83
2022/04/13 02:15:59;;;;;;;3.47;2.25;;;;;;;14.10;56.88;99969.69;5072611;28;20049;-82
2022/04/13 02:18:27;;;;;;;2.85;2.00;;;;;;;14.10;56.67;99959.28;5065943;28;20053;-83
2022/04/13 02:20:54;;;;;;;2.63;2.00;;;;;;;14.12;56.65;99964.53;5057982;28;20057;-83
2022/04/13 02:23:21;;;;;;;3.47;1.90;;;;;;;14.10;56.61;99964.06;5051268;28;20413;-85
2022/04/13 02:25:49;;;;;;;2.97;2.30;;;;;;;14.10;56.49;99964.88;5056835;28;20049;-82
2022/04/13 02:28:19;;;;;;;2.40;2.10;;;;;;;14.08;56.66;99960.81;5065551;28;20455;-82
2022/04/13 02:30:46;;;;;;;3.17;2.00;;;;;;;14.05;56.39;99959.53;5078530;28;20061;-82
2022/04/13 02:33:16;;;;;;;3.45;2.22;;;;;;;14.05;56.95;99958.69;5072940;28;20059;-82
2022/04/13 02:35:43;;;;;;;3.78;1.90;;;;;;;14.02;56.68;99955.41;5076934;28;20052;-83
2022/04/13 02:38:10;;;;;;;3.40;2.17;;;;;;;14.00;57.23;99948.53;5076854;28;20412;-83
2022/04/13 02:40:38;;;;;;;2.65;2.05;;;;;;;14.00;56.58;99951.34;5078109;28;20056;-83
2022/04/13 02:43:05;;;;;;;2.58;1.88;;;;;;;13.98;56.92;99959.28;5065521;28;20056;-84
2022/04/13 02:45:32;;;;;;;3.78;2.38;;;;;;;13.94;57.08;99953.59;5078701;28;20055;-83
2022/04/13 02:48:00;;;;;;;3.30;2.28;;;;;;;13.91;57.12;99962.66;5073553;28;20053;-83
2022/04/13 02:50:28;;;;;;;3.33;1.85;;;;;;;13.88;57.06;99959.75;5062093;28;20505;-81
2022/04/13 02:52:56;;;;;;;2.63;1.83;;;;;;;13.80;57.29;99962.31;5075411;28;20048;-82
2022/04/13 02:55:23;;;;;;;2.72;1.95;;;;;;;13.75;57.13;99968.16;5073921;28;20059;-82
2022/04/13 02:57:52;;;;;;;4.32;2.40;;;;;;;13.69;57.45;99963.09;5072975;28;20049;-82
2022/04/13 03:00:20;;;;;;;6.43;2.30;;;;;;;13.60;57.45;99966.81;5058524;28;20057;-83
2022/04/13 03:02:47;;;;;;;3.08;1.83;;;;;;;13.52;57.49;99969.72;5059390;28;20057;-82
2022/04/13 03:05:14;;;;;;;4.03;2.72;;;;;;;13.47;57.93;99975.56;5067272;28;20049;-83
2022/04/13 03:07:45;;;;;;;2.88;1.92;;;;;;;13.38;58.29;99976.47;5073532;28;20059;-83
2022/04/13 03:10:13;;;;;;;3.03;2.40;;;;;;;13.32;57.97;99983.44;5067168;28;20056;-83
2022/04/13 03:12:42;;;;;;;2.97;1.90;;;;;;;13.25;58.29;99985.97;5072894;28;20053;-82
2022/04/13 03:15:10;;;;;;;4.63;2.40;;;;;;;13.18;58.45;99982.91;5064785;28;20053;-82
2022/04/13 03:17:37;;;;;;;4.32;2.47;;;;;;;13.10;58.17;99981.00;5076233;28;20503;-83
2022/04/13 03:20:09;;;;;;;3.03;2.40;;;;;;;13.05;58.63;99979.22;5059974;28;20053;-83
2022/04/13 03:22:36;;;;;;;3.58;2.20;;;;;;;13.00;58.04;99976.66;5073532;28;20076;-83
2022/04/13 03:25:06;;;;;;;3.40;1.90;;;;;;;12.94;58.45;99989.22;5077863;28;20049;-83
2022/04/13 03:27:33;;;;;;;3.17;1.98;;;;;;;12.88;58.46;99993.38;5077089;28;20053;-81
2022/04/13 03:30:01;;;;;;;4.72;1.98;;;;;;;12.82;58.42;99991.94;5038244;28;20053;-83
2022/04/13 03:32:28;;;;;;;2.90;1.88;;;;;;;12.75;58.45;99990.50;5038581;28;20054;-81
2022/04/13 03:34:55;;;;;;;5.05;2.03;;;;;;;12.71;58.79;99997.13;5069124;28;20424;-82
2022/04/13 03:37:22;;;;;;;3.60;2.20;;;;;;;12.66;58.86;99994.53;5077098;28;20055;-83
2022/04/13 03:39:50;;;;;;;3.03;1.95;;;;;;;12.63;59.42;99996.03;5046604;28;20060;-83
2022/04/13 03:42:21;;;;;;;3.63;2.05;;;;;;;12.59;59.59;99993.09;5037734;28;20429;-82
2022/04/13 03:44:48;;;;;;;4.05;2.05;;;;;;;12.55;59.06;100008.06;5060812;28;20405;-82
2022/04/13 03:47:16;;;;;;;3.72;2.30;;;;;;;12.54;59.84;100010.06;5077094;28;20064;-82
2022/04/13 03:49:46;;;;;;;3.25;1.98;;;;;;;12.52;59.96;100011.56;5068984;28;20044;-83
2022/04/13 03:52:14;;;;;;;3.80;2.53;;;;;;;12.50;60.13;100019.47;5067606;28;20415;-82
2022/04/13 03:54:41;;;;;;;4.18;2.33;;;;;;;12.46;59.99;100015.72;5073624;28;20056;-81
2022/04/13 03:57:08;;;;;;;4.57;2.42;;;;;;;12.46;60.19;100016.53;5063968;28;20413;-83
2022/04/13 03:59:37;;;;;;;5.60;2.28;;;;;;;12.46;60.29;100022.09;5057172;28;20053;-83
2022/04/13 04:02:05;;;;;;;2.88;2.42;;;;;;;12.46;60.20;100021.28;5057731;28;20627;-83
2022/04/13 04:04:32;;;;;;;3.13;2.10;;;;;;;12.47;60.31;100020.13;5064725;28;20048;-83
2022/04/13 04:07:00;;;;;;;4.90;2.75;;;;;;;12.49;60.20;100023.41;5065886;28;20049;-82
2022/04/13 04:09:27;;;;;;;3.47;2.10;;;;;;;12.49;60.03;100027.00;5067643;28;20485;-82
2022/04/13 04:11:54;;;;;;;3.10;2.25;;;;;;;12.48;60.52;100024.56;5052630;28;20063;-83
2022/04/13 04:14:21;;;;;;;3.28;2.05;;;;;;;12.46;60.32;100030.50;5073067;28;20061;-83
2022/04/13 04:16:50;;;;;;;2.92;2.00;;;;;;;12.45;60.30;100030.81;5056272;28;20053;-83
2022/04/13 04:19:18;;;;;;;2.85;2.17;;;;;;;12.42;60.48;100029.53;5077171;28;20053;-83
2022/04/13 04:21:45;;;;;;;4.13;2.40;;;;;;;12.40;60.67;100020.66;5064255;28;20049;-82
2022/04/13 04:24:12;;;;;;;3.25;2.13;;;;;;;12.37;60.39;100027.75;5071417;28;20063;-82
2022/04/13 04:26:40;;;;;;;3.35;2.00;;;;;;;12.30;60.98;100029.44;5080918;28;20056;-83
2022/04/13 04:29:07;;;;;;;3.80;2.67;;;;;;;12.29;60.62;100023.03;5073150;28;20049;-83
2022/04/13 04:31:53;;;;;;;6.38;2.70;;;;;;;12.29;61.01;100033.38;5078257;28;20569;-83
2022/04/13 04:34:24;;;;;;;4.97;2.30;;;;;;;12.27;61.06;100032.91;5079031;28;20051;-83
2022/04/13 04:36:51;;;;;;;4.55;2.50;;;;;;;12.25;61.09;100035.22;5063465;28;20048;-82
2022/04/13 04:39:22;;;;;;;4.75;3.15;;;;;;;12.25;60.78;100041.63;5077037;28;20052;-82
2022/04/13 04:41:49;;;;;;;6.43;2.83;;;;;;;12.25;61.34;100046.38;5077716;28;20053;-81
2022/04/13 04:44:16;;;;;;;7.60;2.80;;;;;;;12.24;61.39;100050.31;5072767;28;20075;-82
2022/04/13 04:46:44;;;;;;;4.35;2.72;;;;;;;12.26;61.43;100059.19;5064049;28;20049;-82
2022/04/13 04:49:11;;;;;;;4.95;2.53;;;;;;;12.28;61.18;100057.69;5080082;28;20060;-81
2022/04/13 04:51:40;;;;;;;5.50;2.42;;;;;;;12.30;61.02;100060.97;5073088;28;20053;-81
2022/04/13 04:54:08;;;;;;;3.63;2.03;;;;;;;12.29;60.58;100059.34;5066323;28;20048;-81
2022/04/13 04:56:35;;;;;;;4.05;2.30;;;;;;;12.28;60.12;100063.25;5060224;28;20053;-83
2022/04/13 04:59:03;;;;;;;3.88;2.38;;;;;;;12.23;60.80;100051.50;5064624;28;20048;-83
2022/04/13 05:01:30;;;;;;;4.38;2.20;;;;;;;12.19;60.71;100060.53;5065536;28;20055;-85
2022/04/13 05:04:00;;;;;;;3.78;2.40;;;;;;;12.15;61.07;100062.34;5062223;28;20518;-82
2022/04/13 05:06:29;;;;;;;5.78;2.67;;;;;;;12.12;60.96;100076.19;5062755;28;20060;-85
2022/04/13 05:08:57;;;;;;;4.57;3.13;;;;;;;12.10;60.91;100070.91;5062192;28;20524;-84
2022/04/13 05:11:25;;;;;;;4.50;2.30;;;;;;;12.11;60.77;100075.34;5059616;28;20048;-83
2022/04/13 05:13:52;;;;;;;3.33;2.22;;;;;;;12.09;61.29;100074.03;5066926;28;20052;-83
2022/04/13 05:16:21;;;;;;;5.70;2.60;;;;;;;12.09;61.28;100077.63;5066788;28;20049;-83
2022/04/13 05:18:48;;;;;;;3.20;2.20;;;;;;;12.10;61.53;100073.72;5070778;28;20401;-83
2022/04/13 05:21:16;;;;;;;3.63;2.38;;;;;;;12.13;61.62;100084.19;5060222;28;20049;-83
2022/04/13 05:23:43;;;;;;;3.17;2.15;;;;;;;12.16;61.55;100080.75;5061796;28;20053;-83
2022/04/13 05:26:12;;;;;;;3.85;2.30;;;;;;;12.22;61.58;100086.97;5073598;28;20052;-83
2022/04/13 05:28:39;;;;;;;4.13;2.97;;;;;;;12.26;61.52;100084.31;5052896;28;20053;-84
2022/04/13 05:31:08;;;;;;;3.58;2.60;;;;;;;12.27;61.87;100085.97;5059520;28;20049;-83
2022/04/13 05:33:35;;;;;;;6.47;2.77;;;;;;;12.34;61.74;100084.25;5070288;28;20059;-82
2022/04/13 05:36:04;;;;;;;2.83;2.47;;;;;;;12.41;61.79;100078.19;5075830;28;20051;-81
2022/04/13 05:38:31;;;;;;;6.00;2.50;;;;;;;12.48;61.59;100089.63;5058064;28;20057;-82
2022/04/13 05:40:58;;;;;;;4.65;2.80;;;;;;;12.58;61.32;100089.25;5077766;28;20064;-82
2022/04/13 05:43:28;;;;;;;4.68;3.10;;;;;;;12.68;60.87;100088.06;5060773;28;20072;-82
2022/04/13 05:45:56;;;;;;;6.05;3.00;;;;;;;12.73;61.08;100089.81;5044397;28;20060;-84
2022/04/13 05:48:23;;;;;;;5.70;2.60;;;;;;;12.84;61.15;100096.66;5069522;28;20091;-83
2022/04/13 05:50:51;;;;;;;5.35;2.65;;;;;;;12.94;61.27;100103.84;5066203;28;20060;-83
2022/04/13 05:53:19;;;;;;;7.35;3.40;;;;;;;13.02;60.94;100105.75;5068614;28;20064;-82
2022/04/13 05:55:46;;;;;;;5.60;2.85;;;;;;;13.13;60.87;100108.97;5061258;28;20052;-83
2022/04/13 05:58:13;;;;;;;4.95;3.20;;;;;;;13.20;60.64;100112.81;5064010;28;20060;-83
2022/04/13 06:00:43;;;;;;;4.80;3.05;;;;;;;13.31;60.33;100107.69;5063922;28;20049;-82
2022/04/13 06:03:10;;;;;;;3.83;2.80;;;;;;;13.38;60.65;100105.16;5064265;28;20045;-84
2022/04/13 06:05:38;;;;;;;5.78;3.38;;;;;;;13.50;60.90;100106.34;5063952;28;20045;-85
2022/04/13 06:08:06;;;;;;;4.28;2.45;;;;;;;13.64;60.23;100108.88;5064908;28;20056;-84
2022/04/13 06:10:34;;;;;;;6.38;3.38;;;;;;;13.74;59.97;100112.06;5067161;28;20056;-82
2022/04/13 06:13:01;;;;;;;5.75;3.53;;;;;;;13.91;59.68;100113.03;5067101;28;20055;-84
2022/04/13 06:15:29;;;;;;;9.05;3.55;;;;;;;14.05;59.95;100115.50;5063917;28;20049;-82
2022/04/13 06:17:58;;;;;;;7.80;3.58;;;;;;;14.20;59.23;100123.28;5064483;28;20052;-82
2022/04/13 06:20:25;;;;;;;6.73;3.57;;;;;;;14.36;58.80;100115.81;5065393;28;20041;-84
2022/04/13 06:22:53;;;;;;;5.05;3.72;;;;;;;14.48;57.40;100123.41;5062204;28;20040;-84
2022/04/13 06:25:20;;;;;;;7.43;3.80;;;;;;;14.69;56.73;100128.13;5064788;28;20052;-83
2022/04/13 06:27:48;;;;;;;7.32;3.88;;;;;;;14.89;55.32;100131.94;5063985;28;20049;-84
2022/04/13 06:30:15;;;;;;;6.22;3.78;;;;;;;15.08;55.32;100139.78;5064897;28;20060;-83
2022/04/13 06:32:44;;;;;;;8.13;3.83;;;;;;;15.29;54.57;100140.44;5060351;28;20041;-84
2022/04/13 06:35:15;;;;;;;7.23;3.80;;;;;;;15.43;54.40;100137.22;5075248;28;20059;-84
2022/04/13 06:37:44;;;;;;;8.25;4.10;;;;;;;15.66;54.52;100129.06;5060317;28;20044;-82
2022/04/13 06:40:13;;;;;;;8.95;3.92;;;;;;;15.86;53.67;100143.31;5053328;28;20056;-81
2022/04/13 06:42:42;;;;;;;8.60;4.10;;;;;;;15.94;52.98;100137.53;5042714;28;20071;-81
2022/04/13 06:45:11;;;;;;;7.40;3.85;;;;;;;16.24;52.26;100137.13;5053425;28;20064;-80
2022/04/13 06:47:39;;;;;;;8.52;4.10;;;;;;;16.47;51.70;100142.94;5052857;28;20053;-81
2022/04/13 06:50:09;;;;;;;5.75;3.47;;;;;;;16.67;51.57;100140.19;5055045;28;20067;-81
2022/04/13 06:52:42;;;;;;;5.15;3.45;;;;;;;16.89;50.20;100135.94;5051880;28;20049;-81
2022/04/13 06:55:10;;;;;;;6.43;3.85;;;;;;;17.04;49.82;100144.34;5055888;28;20049;-80
2022/04/13 06:57:38;;;;;;;5.15;3.38;;;;;;;17.30;49.67;100145.72;5052189;28;20048;-81
2022/04/13 07:00:07;;;;;;;5.82;3.40;;;;;;;17.55;49.46;100151.91;5051333;28;20402;-79
2022/04/13 07:02:35;;;;;;;5.57;3.70;;;;;;;17.78;49.05;100154.78;5051402;28;20063;-79
2022/04/13 07:05:03;;;;;;;9.20;3.72;;;;;;;18.02;47.77;100155.72;5051837;28;20048;-80
2022/04/13 07:07:31;;;;;;;3.35;2.72;;;;;;;18.32;47.47;100155.88;5051982;28;20051;-80
2022/04/13 07:10:00;;;;;;;8.27;3.90;;;;;;;18.67;46.69;100164.16;5051898;28;20778;-83
2022/04/13 07:12:34;;;;;;;7.32;4.05;;;;;;;19.02;46.58;100167.94;5057944;28;20378;-79
2022/04/13 07:15:02;;;;;;;5.63;3.58;;;;;;;19.33;46.25;100171.66;5059230;28;20056;-81
2022/04/13 07:17:30;;;;;;;5.55;3.50;;;;;;;19.58;44.90;100175.63;5057278;28;20045;-80
2022/04/13 07:19:57;;;;;;;5.03;3.47;;;;;;;19.66;43.70;100170.88;5066624;28;20041;-81
2022/04/13 07:22:25;;;;;;;5.03;3.10;;;;;;;20.03;42.65;100178.63;5060853;28;20053;-81
2022/04/13 07:24:55;;;;;;;7.13;4.25;;;;;;;20.50;43.58;100171.47;5061052;28;20056;-80
2022/04/13 07:27:24;;;;;;;6.15;3.80;;;;;;;21.16;41.22;100170.81;5041654;28;20049;-81
2022/04/13 07:29:51;;;;;;;7.35;4.15;;;;;;;21.76;38.83;100169.56;5057440;28;20057;-81
2022/04/13 07:32:18;;;;;;;9.82;4.10;;;;;;;22.32;37.93;100168.13;5055456;28;20119;-80
2022/04/13 07:34:46;;;;;;;5.78;3.22;;;;;;;23.13;35.61;100159.28;5056812;28;20053;-82
2022/04/13 07:37:13;;;;;;;7.90;3.15;;;;;;;23.42;35.47;100163.69;5056280;28;20057;-81
2022/04/13 07:39:40;;;;;;;4.72;3.10;;;;;;;23.53;34.51;100160.78;5057514;28;20051;-81
2022/04/13 07:42:09;;;;;;;5.18;3.20;;;;;;;23.39;34.89;100173.03;5058676;28;20052;-82
2022/04/13 07:44:38;;;;;;;6.50;3.60;;;;;;;23.74;34.33;100170.47;5059351;28;20040;-82
2022/04/13 07:47:05;;;;;;;5.95;3.25;;;;;;;24.19;34.45;100162.16;5060590;28;20048;-81
2022/04/13 07:49:32;;;;;;;7.15;3.53;;;;;;;24.61;33.63;100169.66;5056902;28;20049;-82
2022/04/13 07:52:00;;;;;;;8.10;5.00;;;;;;;24.88;32.90;100171.88;5057128;28;20053;-81
2022/04/13 07:54:27;;;;;;;8.75;4.65;;;;;;;25.46;32.42;100172.16;5057164;28;20358;-82
2022/04/13 07:56:55;;;;;;;10.05;5.38;;;;;;;26.19;31.96;100176.59;5056774;28;20064;-82
2022/04/13 07:59:25;;;;;;;8.50;3.88;;;;;;;26.91;30.78;100178.38;5063476;28;20056;-82
2022/04/13 08:01:54;;;;;;;9.07;4.20;;;;;;;27.31;30.15;100181.38;5044641;28;20052;-81
2022/04/13 08:04:21;;;;;;;6.63;3.80;;;;;;;28.08;28.72;100171.66;5055669;28;20055;-80
2022/04/13 08:06:48;;;;;;;8.05;4.40;;;;;;;28.84;27.61;100169.94;5056808;28;20052;-80
2022/04/13 08:09:16;;;;;;;7.28;4.50;;;;;;;29.10;27.77;100174.59;5061308;28;20053;-82
2022/04/13 08:11:46;;;;;;;7.45;4.32;;;;;;;30.04;26.85;100174.88;5060771;28;20053;-80
2022/04/13 08:14:13;;;;;;;6.78;4.30;;;;;;;30.40;25.43;100180.34;5039077;28;20045;-81
2022/04/13 08:16:40;;;;;;;8.40;4.28;;;;;;;30.54;24.87;100188.53;5057869;28;20053;-82
2022/04/13 08:19:09;;;;;;;9.95;5.05;;;;;;;31.30;25.39;100183.16;5058319;28;20417;-81
2022/04/13 08:21:38;;;;;;;;;;;;;;;31.50;25.01;100185.78;5059735;28;20049;-82
2022/04/13 08:24:06;;;;;;;9.32;4.72;;;;;;;31.75;24.58;100190.59;5057509;28;19924;-81
2022/04/13 08:26:34;;;;;;;10.38;4.72;;;;;;;31.72;23.93;100186.56;5059301;28;20048;-82
2022/04/13 08:29:03;;;;;;;8.23;4.45;;;;;;;31.38;24.30;100186.59;5058674;28;20049;-81
2022/04/13 08:31:30;;;;;;;6.95;4.40;;;;;;;31.45;24.17;100195.78;5057706;28;20052;-81
2022/04/13 08:33:58;;;;;;;8.68;4.30;;;;;;;31.88;24.42;100193.44;5056812;28;20053;-81
2022/04/13 08:36:26;;;;;;;11.00;4.78;;;;;;;32.46;23.42;100189.16;5057487;28;20072;-82
2022/04/13 08:38:53;;;;;;;;;;;;;;;32.49;23.71;100196.88;5066008;28;20051;-80
2022/04/13 08:41:30;;;;;;;8.25;4.78;;;;;;;33.05;23.11;100201.56;5058092;28;19920;-81
2022/04/13 08:44:05;;;;;;;8.07;5.03;;;;;;;33.86;21.75;100192.69;5057562;28;20049;-80
2022/04/13 08:46:38;;;;;;;8.30;4.47;;;;;;;34.61;21.41;100196.19;5057947;28;20056;-79
2022/04/13 08:49:06;;;;;;;10.63;5.38;;;;;;;34.42;20.43;100207.03;5064727;28;20454;-79
2022/04/13 08:51:36;;;;;;;8.95;4.82;;;;;;;35.74;20.55;100203.28;5055811;28;20060;-80
2022/04/13 08:54:11;;;;;;;8.48;4.80;;;;;;;36.74;19.70;100205.59;5062816;28;20051;-80
2022/04/13 08:56:40;;;;;;;9.00;4.53;;;;;;;37.43;18.37;100199.47;5056368;28;20049;-82
2022/04/13 08:59:17;;;;;;;6.72;4.20;;;;;;;38.39;16.84;100194.72;5056132;28;20049;-80
2022/04/13 09:01:56;;;;;;;9.15;5.25;;;;;;;39.04;16.94;100205.03;5053106;28;20076;-81
2022/04/13 09:04:28;;;;;;;7.18;4.65;;;;;;;39.90;16.10;100204.91;5058947;28;20045;-81
2022/04/13 09:07:01;;;;;;;9.38;4.68;;;;;;;40.53;15.80;100206.56;5068921;28;20060;-80
2022/04/13 09:09:32;;;;;;;6.85;4.82;;;;;;;40.90;14.79;100206.31;5060391;28;20059;-82
2022/04/13 09:12:01;;;;;;;9.20;4.57;;;;;;;41.61;15.22;100218.88;5059646;28;20049;-82
2022/04/13 09:14:29;;;;;;;9.00;5.00;;;;;;;41.67;13.78;100216.72;5057036;28;20056;-81
2022/04/13 09:16:59;;;;;;;8.10;4.95;;;;;;;42.03;14.21;100214.69;5059406;28;20413;-83
2022/04/13 09:19:26;;;;;;;9.30;5.30;;;;;;;42.51;13.66;100218.34;5058679;28;20052;-81
2022/04/13 09:21:55;;;;;;;6.93;4.68;;;;;;;42.87;13.68;100210.28;5064901;28;20053;-84
2022/04/13 09:24:27;;;;;;;8.68;4.45;;;;;;;43.30;13.67;100218.38;5059481;28;20048;-83
2022/04/13 09:26:55;;;;;;;6.03;4.07;;;;;;;43.80;13.07;100218.28;5059171;28;20052;-82
2022/04/13 09:29:22;;;;;;;;;;;;;;;43.51;13.45;100215.72;5059751;28;20409;-82
2022/04/13 09:31:49;;;;;;;6.93;4.13;;;;;;;43.83;13.29;100212.13;5058244;28;19928;-85
2022/04/13 09:34:16;;;;;;;;;;;;;;;43.88;12.92;100225.91;5059798;28;20064;-85
2022/04/13 09:36:44;;;;;;;6.93;5.07;;;;;;;44.05;12.78;100222.75;5062127;28;19947;-85
2022/04/13 09:39:14;;;;;;;9.43;4.55;;;;;;;44.48;12.50;100209.25;5060731;28;20052;-85
2022/04/13 09:41:43;;;;;;;7.25;4.78;;;;;;;44.84;12.65;100220.66;5060525;28;20493;-85
2022/04/13 09:44:14;;;;;;;6.95;4.43;;;;;;;44.91;12.03;100217.06;5062037;28;20053;-84
2022/04/13 09:46:45;;;;;;;9.57;4.53;;;;;;;45.23;12.05;100211.06;5061988;28;20056;-84
2022/04/13 09:49:14;;;;;;;10.02;4.75;;;;;;;45.40;11.87;100219.56;5062419;28;20052;-84
2022/04/13 09:51:43;;;;;;;7.75;4.65;;;;;;;45.51;11.65;100210.53;5061057;28;20041;-84
2022/04/13 09:54:12;;;;;;;7.20;4.65;;;;;;;45.54;12.04;100212.31;5061266;28;20056;-85
2022/04/13 09:56:47;;;;;;;8.52;4.88;;;;;;;45.81;11.74;100214.47;5062317;28;20045;-85
2022/04/13 09:59:26;;;;;;;7.18;4.75;;;;;;;45.88;11.57;100205.69;5061305;28;20379;-86
2022/04/13 10:01:53;;;;;;;7.03;4.30;;;;;;;45.83;11.77;100203.69;5059884;28;20056;-86
2022/04/13 10:04:23;;;;;;;;;;;;;;;45.42;11.77;100204.31;5060308;28;20057;-86
2022/04/13 10:06:52;;;;;;;9.52;5.00;;;;;;;45.11;12.19;100204.66;5058617;28;20345;-86
2022/04/13 10:09:20;;;;;;;8.80;5.03;;;;;;;45.29;12.00;100202.97;5059442;28;20059;-85
2022/04/13 10:12:02;;;;;;;7.57;4.15;;;;;;;45.35;12.29;100196.97;5061558;28;20057;-85
2022/04/13 10:14:30;;;;;;;8.15;4.88;;;;;;;45.57;11.72;100201.56;5044217;28;20060;-85
2022/04/13 10:17:07;;;;;;;8.55;4.60;;;;;;;45.89;11.61;100194.75;5061253;28;20049;-85
2022/04/13 10:19:35;;;;;;;8.90;4.60;;;;;;;45.97;11.63;100195.59;5057210;28;20148;-85
2022/04/13 10:22:03;;;;;;;8.82;5.28;;;;;;;46.20;11.32;100198.81;5060389;28;20488;-85
2022/04/13 10:24:33;;;;;;;8.02;5.25;;;;;;;46.23;10.49;100194.72;5060485;28;20071;-85
2022/04/13 10:27:03;;;;;;;7.65;5.35;;;;;;;45.92;11.41;100200.25;5060079;28;20167;-85
2022/04/13 10:29:31;;;;;;;12.80;5.13;;;;;;;46.30;11.21;100199.09;5059918;28;20053;-85
2022/04/13 10:32:10;;;;;;;7.60;4.75;;;;;;;46.30;11.41;100205.78;5060044;28;20061;-86
2022/04/13 10:34:39;;;;;;;7.20;4.13;;;;;;;46.80;11.22;100194.09;5058885;28;20076;-85
2022/04/13 10:37:12;;;;;;;6.90;4.07;;;;;;;47.10;11.11;100193.50;5059137;28;20421;-85
2022/04/13 10:39:41;;;;;;;8.50;5.05;;;;;;;47.14;10.24;100199.03;5057882;28;20049;-86
2022/04/13 10:42:11;;;;;;;7.72;5.05;;;;;;;46.89;10.75;100202.41;5059853;28;20064;-85
2022/04/13 10:44:42;;;;;;;5.60;4.15;;;;;;;46.89;10.56;100195.72;5059798;28;20057;-86
2022/04/13 10:47:12;;;;;;;9.05;5.10;;;;;;;45.07;12.02;100207.13;5060116;28;20489;-86
2022/04/13 10:49:47;;;;;;;8.48;4.68;;;;;;;44.57;12.07;100203.75;5060259;28;20052;-85
2022/04/13 10:52:21;;;;;;;10.23;5.60;;;;;;;43.98;12.26;100212.41;5061343;28;20053;-84
2022/04/13 10:54:55;;;;;;;8.70;4.25;;;;;;;43.94;13.16;100209.00;5060615;28;20386;-86
2022/04/13 10:57:28;;;;;;;7.78;4.63;;;;;;;43.64;12.54;100205.41;5060811;28;20425;-85
2022/04/13 11:00:02;;;;;;;8.52;4.75;;;;;;;42.37;13.71;100215.22;5058486;28;20517;-85
2022/04/13 11:02:33;;;;;;;7.75;4.03;;;;;;;41.91;14.50;100216.84;5060950;28;20056;-85
2022/04/13 11:05:01;;;;;;;7.50;4.22;;;;;;;41.32;14.92;100230.66;5059065;28;20437;-85
2022/04/13 11:07:30;;;;;;;12.05;4.57;;;;;;;40.24;15.70;100234.16;5058708;28;20064;-84
2022/04/13 11:10:00;;;;;;;8.93;4.35;;;;;;;39.20;16.18;100223.94;5058057;28;20418;-84
2022/04/13 11:12:33;;;;;;;8.50;4.50;;;;;;;38.60;16.79;100229.56;5058807;28;20053;-85
2022/04/13 11:15:02;;;;;;;14.68;6.80;;;;;;;37.92;17.65;100235.47;5058225;28;20053;-84
2022/04/13 11:17:37;;;;;;;10.82;4.22;;;;;;;37.85;18.16;100230.13;5041695;28;20049;-84
2022/04/13 11:20:22;;;;;;;8.10;3.92;;;;;;;38.14;18.35;100234.97;5057161;28;20408;-84
2022/04/13 11:23:07;;;;;;;7.95;3.78;;;;;;;38.85;17.80;100222.91;5057472;28;20061;-86
2022/04/13 11:25:46;;;;;;;10.07;4.50;;;;;;;39.68;17.11;100235.56;5055202;28;20049;-83
2022/04/13 11:28:28;;;;;;;6.78;3.65;;;;;;;40.56;15.50;100240.56;5057095;28;20045;-83
2022/04/13 11:31:03;;;;;;;7.80;4.20;;;;;;;41.13;14.89;100235.47;5058689;28;20056;-85
2022/04/13 11:33:50;;;;;;;7.72;4.65;;;;;;;41.69;15.18;100238.25;5059173;28;20041;-85
2022/04/13 11:36:20;;;;;;;8.30;4.43;;;;;;;41.83;14.59;100235.50;5051552;28;20053;-86
2022/04/13 11:38:51;;;;;;;8.07;3.92;;;;;;;42.22;14.44;100240.38;5051836;28;20060;-86